createdAt,value
2018-10-16T00:00:50.680Z,7.56
2018-10-16T00:02:50.150Z,7.51
2018-10-16T00:04:50.748Z,7.49
2018-10-16T00:06:50.237Z,7.47
2018-10-16T00:08:50.359Z,7.45
2018-10-16T00:10:50.540Z,7.44
2018-10-16T00:12:50.829Z,7.42
2018-10-16T00:14:50.001Z,7.37
2018-10-16T00:16:50.381Z,7.29
2018-10-16T00:18:50.608Z,7.27
2018-10-16T00:20:49.915Z,7.26
2018-10-16T00:22:49.966Z,7.25
2018-10-16T00:24:49.997Z,7.23
2018-10-16T00:26:50.170Z,7.20
2018-10-16T00:28:50.359Z,7.19
2018-10-16T00:30:50.504Z,7.16
2018-10-16T00:32:50.778Z,7.12
2018-10-16T00:34:50.306Z,7.11
2018-10-16T00:36:50.609Z,7.09
2018-10-16T00:38:49.977Z,7.08
2018-10-16T00:40:50.196Z,7.05
2018-10-16T00:42:50.338Z,7.02
2018-10-16T00:44:50.513Z,6.98
2018-10-16T00:46:49.995Z,6.94
2018-10-16T00:48:50.300Z,6.90
2018-10-16T00:50:50.520Z,6.86
2018-10-16T00:52:50.701Z,6.82
2018-10-16T00:54:51.281Z,6.80
2018-10-16T00:56:50.751Z,6.77
2018-10-16T00:58:49.958Z,6.76
2018-10-16T01:00:50.101Z,6.75
2018-10-16T01:02:50.294Z,6.75
2018-10-16T01:04:50.639Z,6.75
2018-10-16T01:06:50.034Z,6.73
2018-10-16T01:08:50.097Z,6.68
2018-10-16T01:10:50.249Z,6.66
2018-10-16T01:12:50.416Z,6.63
2018-10-16T01:14:49.959Z,6.59
2018-10-16T01:16:50.282Z,6.57
2018-10-16T01:18:50.501Z,6.56
2018-10-16T01:20:50.712Z,6.54
2018-10-16T01:22:49.937Z,6.54
2018-10-16T01:24:50.151Z,6.54
2018-10-16T01:26:50.489Z,6.51
2018-10-16T01:28:50.759Z,6.51
2018-10-16T01:30:50.011Z,6.46
2018-10-16T01:32:50.453Z,6.43
2018-10-16T01:34:50.047Z,6.41
2018-10-16T01:36:50.459Z,6.39
2018-10-16T01:38:49.915Z,6.37
2018-10-16T01:40:50.111Z,6.36
2018-10-16T01:42:50.327Z,6.36
2018-10-16T01:44:50.523Z,6.36
2018-10-16T01:46:49.935Z,6.35
2018-10-16T01:48:50.292Z,6.41
2018-10-16T01:50:50.444Z,6.51
2018-10-16T01:52:50.686Z,6.54
2018-10-16T01:54:49.909Z,6.57
2018-10-16T01:56:50.512Z,6.57
2018-10-16T01:58:50.683Z,6.56
2018-10-16T02:00:50.009Z,6.50
2018-10-16T02:02:50.140Z,6.46
2018-10-16T02:04:50.688Z,6.42
2018-10-16T02:06:50.047Z,6.43
2018-10-16T02:08:50.268Z,6.41
2018-10-16T02:10:50.435Z,6.37
2018-10-16T02:12:50.631Z,6.34
2018-10-16T02:14:51.689Z,6.33
2018-10-16T02:16:50.196Z,6.30
2018-10-16T02:18:50.322Z,6.28
2018-10-16T02:20:50.408Z,6.28
2018-10-16T02:22:50.592Z,6.27
2018-10-16T02:24:50.694Z,6.26
2018-10-16T02:26:50.039Z,6.22
2018-10-16T02:28:50.323Z,6.18
2018-10-16T02:30:50.463Z,6.15
2018-10-16T02:32:50.650Z,6.12
2018-10-16T02:34:50.101Z,6.09
2018-10-16T02:36:50.317Z,6.08
2018-10-16T02:38:50.824Z,6.06
2018-10-16T02:40:50.121Z,6.06
2018-10-16T02:42:50.320Z,6.09
2018-10-16T02:44:50.543Z,6.07
2018-10-16T02:46:49.885Z,6.03
2018-10-16T02:48:50.141Z,5.99
2018-10-16T02:50:50.334Z,5.95
2018-10-16T02:52:50.514Z,5.92
2018-10-16T02:54:50.647Z,5.89
2018-10-16T02:56:49.937Z,5.89
2018-10-16T02:58:50.154Z,5.86
2018-10-16T03:00:50.287Z,5.85
2018-10-16T03:02:50.471Z,5.83
2018-10-16T03:04:50.048Z,5.82
2018-10-16T03:06:50.476Z,5.83
2018-10-16T03:08:50.652Z,5.79
2018-10-16T03:10:50.746Z,5.72
2018-10-16T03:12:50.215Z,5.70
2018-10-16T03:14:50.543Z,5.68
2018-10-16T03:16:50.135Z,5.64
2018-10-16T03:18:50.397Z,5.60
2018-10-16T03:20:50.768Z,5.58
2018-10-16T03:22:50.063Z,5.58
2018-10-16T03:24:50.409Z,5.60
2018-10-16T03:26:50.406Z,5.62
2018-10-16T03:28:50.645Z,5.65
2018-10-16T03:30:50.931Z,5.66
2018-10-16T03:32:50.201Z,5.64
2018-10-16T03:34:50.774Z,5.61
2018-10-16T03:36:50.411Z,5.58
2018-10-16T03:38:49.950Z,5.56
2018-10-16T03:40:50.158Z,5.55
2018-10-16T03:42:50.451Z,5.55
2018-10-16T03:44:50.647Z,5.54
2018-10-16T03:46:50.109Z,5.54
2018-10-16T03:48:50.302Z,5.53
2018-10-16T03:50:50.609Z,5.53
2018-10-16T03:52:50.881Z,5.48
2018-10-16T03:54:50.013Z,5.44
2018-10-16T03:56:50.650Z,5.39
2018-10-16T03:58:50.785Z,5.37
2018-10-16T04:00:49.985Z,5.33
2018-10-16T04:02:50.142Z,5.32
2018-10-16T04:04:50.622Z,5.29
2018-10-16T04:06:50.835Z,5.27
2018-10-16T04:08:50.253Z,5.25
2018-10-16T04:10:50.569Z,5.28
2018-10-16T04:12:50.807Z,5.32
2018-10-16T04:14:49.949Z,5.32
2018-10-16T04:16:50.486Z,5.31
2018-10-16T04:18:50.569Z,5.30
2018-10-16T04:20:50.813Z,5.28
2018-10-16T04:22:50.666Z,5.26
2018-10-16T04:24:50.086Z,5.24
2018-10-16T04:26:50.847Z,5.25
2018-10-16T04:28:50.044Z,5.24
2018-10-16T04:30:50.211Z,5.24
2018-10-16T04:32:50.342Z,5.26
2018-10-16T04:34:49.914Z,5.25
2018-10-16T04:36:50.145Z,5.19
2018-10-16T04:38:50.236Z,5.16
2018-10-16T04:40:50.376Z,5.17
2018-10-16T04:42:50.680Z,5.17
2018-10-16T04:44:50.118Z,5.16
2018-10-16T04:46:50.508Z,5.15
2018-10-16T04:48:50.660Z,5.14
2018-10-16T04:50:50.871Z,5.15
2018-10-16T04:52:50.009Z,5.17
2018-10-16T04:54:50.148Z,5.24
2018-10-16T04:56:50.503Z,5.30
2018-10-16T04:58:50.635Z,5.34
2018-10-16T05:00:50.830Z,5.39
2018-10-16T05:02:49.982Z,5.35
2018-10-16T05:04:50.343Z,5.34
2018-10-16T05:06:50.620Z,5.23
2018-10-16T05:08:50.840Z,5.19
2018-10-16T05:10:50.014Z,5.15
2018-10-16T05:12:50.187Z,5.12
2018-10-16T05:14:50.403Z,5.10
2018-10-16T05:16:52.059Z,5.08
2018-10-16T05:18:50.660Z,5.08
2018-10-16T05:20:50.014Z,5.08
2018-10-16T05:22:50.249Z,5.09
2018-10-16T05:24:50.516Z,5.05
2018-10-16T05:26:50.820Z,5.04
2018-10-16T05:28:50.044Z,5.01
2018-10-16T05:30:50.728Z,5.02
2018-10-16T05:32:49.975Z,5.05
2018-10-16T05:34:50.352Z,5.05
2018-10-16T05:36:50.413Z,5.06
2018-10-16T05:38:50.587Z,5.07
2018-10-16T05:40:50.775Z,5.07
2018-10-16T05:42:49.892Z,5.07
2018-10-16T05:44:50.064Z,5.08
2018-10-16T05:46:50.391Z,5.10
2018-10-16T05:48:50.670Z,5.10
2018-10-16T05:50:49.973Z,5.10
2018-10-16T05:52:50.154Z,5.11
2018-10-16T05:54:50.333Z,5.11
2018-10-16T05:56:50.753Z,5.12
2018-10-16T05:58:49.881Z,5.13
2018-10-16T06:00:50.232Z,5.14
2018-10-16T06:02:50.355Z,5.16
2018-10-16T06:04:49.917Z,5.18
2018-10-16T06:06:50.176Z,5.21
2018-10-16T06:08:50.367Z,5.22
2018-10-16T06:10:51.095Z,5.33
2018-10-16T06:12:50.558Z,5.38
2018-10-16T06:14:50.743Z,5.45
2018-10-16T06:16:50.150Z,5.52
2018-10-16T06:18:50.269Z,5.60
2018-10-16T06:20:50.406Z,5.70
2018-10-16T06:22:50.552Z,5.81
2018-10-16T06:24:50.744Z,5.91
2018-10-16T06:26:50.112Z,5.99
2018-10-16T06:28:50.296Z,6.07
2018-10-16T06:30:50.492Z,6.20
2018-10-16T06:32:50.564Z,6.30
2018-10-16T06:34:50.112Z,6.49
2018-10-16T06:36:50.481Z,6.70
2018-10-16T06:38:50.559Z,6.88
2018-10-16T06:40:51.533Z,6.97
2018-10-16T06:42:50.136Z,7.08
2018-10-16T06:44:50.512Z,7.09
2018-10-16T06:46:49.906Z,7.14
2018-10-16T06:48:52.464Z,7.25
2018-10-16T06:50:50.121Z,7.35
2018-10-16T06:52:50.286Z,7.43
2018-10-16T06:54:51.487Z,7.43
2018-10-16T06:56:50.780Z,7.52
2018-10-16T06:58:50.039Z,7.53
2018-10-16T07:00:50.178Z,7.60
2018-10-16T07:02:50.319Z,7.65
2018-10-16T07:04:49.963Z,7.81
2018-10-16T07:06:51.030Z,7.92
2018-10-16T07:08:50.411Z,8.13
2018-10-16T07:10:50.634Z,8.29
2018-10-16T07:12:49.949Z,8.4
2018-10-16T07:14:50.444Z,8.5
2018-10-16T07:16:50.869Z,8.51
2018-10-16T07:18:50.178Z,8.7
2018-10-16T07:20:50.553Z,8.8
2018-10-16T07:22:50.797Z,8.8
2018-10-16T07:24:50.080Z,8.9
2018-10-16T07:26:50.485Z,8.9
2018-10-16T07:28:50.705Z,9.0
2018-10-16T07:30:49.961Z,9.0
2018-10-16T07:32:50.164Z,9.2
2018-10-16T07:34:50.829Z,9.3
2018-10-16T07:36:50.278Z,9.4
2018-10-16T07:38:50.943Z,9.5
2018-10-16T07:40:50.394Z,9.5
2018-10-16T07:42:50.596Z,9.7
2018-10-16T07:44:50.719Z,9.8
2018-10-16T07:46:50.189Z,9.9
2018-10-16T07:48:50.366Z,10.0
2018-10-16T07:50:50.578Z,10.0
2018-10-16T07:52:50.787Z,10.2
2018-10-16T07:54:49.957Z,10.3
2018-10-16T07:56:50.441Z,10.3
2018-10-16T07:58:50.648Z,10.3
2018-10-16T08:00:50.053Z,10.5
2018-10-16T08:02:50.236Z,10.6
2018-10-16T08:04:50.753Z,10.7
2018-10-16T08:06:50.108Z,10.7
2018-10-16T08:08:50.271Z,10.7
2018-10-16T08:10:50.420Z,10.9
2018-10-16T08:12:50.490Z,11.0
2018-10-16T08:14:50.707Z,11.1
2018-10-16T08:16:50.161Z,11.1
2018-10-16T08:18:50.348Z,11.2
2018-10-16T08:20:50.471Z,11.2
2018-10-16T08:22:50.590Z,11.3
2018-10-16T08:24:51.131Z,11.4
2018-10-16T08:26:50.502Z,11.5
2018-10-16T08:28:50.794Z,11.5
2018-10-16T08:30:50.000Z,11.6
2018-10-16T08:32:50.117Z,11.7
2018-10-16T08:34:50.567Z,11.8
2018-10-16T08:36:52.266Z,11.9
2018-10-16T08:38:50.863Z,11.9
2018-10-16T08:40:49.913Z,12.0
2018-10-16T08:42:50.119Z,12.0
2018-10-16T08:44:50.752Z,12.1
2018-10-16T08:46:50.420Z,12.1
2018-10-16T08:48:50.528Z,12.2
2018-10-16T08:50:50.678Z,12.4
2018-10-16T08:52:49.948Z,12.4
2018-10-16T08:54:50.612Z,12.4
2018-10-16T08:56:50.074Z,12.6
2018-10-16T08:58:50.374Z,12.6
2018-10-16T09:00:50.567Z,12.8
2018-10-16T09:02:50.724Z,12.8
2018-10-16T09:04:49.953Z,12.8
2018-10-16T09:06:50.899Z,12.9
2018-10-16T09:08:50.251Z,13.0
2018-10-16T09:10:50.395Z,13.0
2018-10-16T09:12:50.548Z,13.0
2018-10-16T09:14:50.736Z,13.2
2018-10-16T09:16:50.174Z,13.3
2018-10-16T09:18:50.407Z,13.4
2018-10-16T09:20:50.550Z,13.4
2018-10-16T09:22:50.735Z,13.4
2018-10-16T09:24:50.124Z,13.6
2018-10-16T09:26:50.495Z,13.7
2018-10-16T09:28:50.714Z,13.7
2018-10-16T09:30:51.023Z,13.8
2018-10-16T09:32:50.554Z,13.8
2018-10-16T09:34:50.146Z,14.0
2018-10-16T09:36:50.828Z,14.0
2018-10-16T09:38:50.386Z,14.1
2018-10-16T09:40:50.539Z,14.2
2018-10-16T09:42:50.757Z,14.3
2018-10-16T09:44:50.081Z,14.3
2018-10-16T09:46:50.395Z,14.4
2018-10-16T09:48:50.596Z,14.5
2018-10-16T09:50:50.701Z,14.6
2018-10-16T09:52:49.973Z,14.6
2018-10-16T09:54:50.132Z,14.7
2018-10-16T09:56:50.455Z,14.8
2018-10-16T09:58:50.602Z,15.0
2018-10-16T10:00:51.319Z,15.0
2018-10-16T10:02:50.682Z,15.1
2018-10-16T10:04:50.437Z,15.2
2018-10-16T10:06:50.764Z,15.3
2018-10-16T10:08:49.899Z,15.4
2018-10-16T10:10:50.435Z,15.5
2018-10-16T10:12:50.754Z,15.5
2018-10-16T10:14:49.974Z,15.7
2018-10-16T10:16:50.457Z,15.8
2018-10-16T10:18:50.562Z,15.9
2018-10-16T10:20:50.667Z,15.9
2018-10-16T10:22:50.842Z,16.0
2018-10-16T10:24:50.420Z,16.2
2018-10-16T10:26:50.700Z,16.2
2018-10-16T10:28:50.859Z,16.4
2018-10-16T10:30:49.971Z,16.4
2018-10-16T10:32:50.141Z,16.5
2018-10-16T10:34:50.508Z,16.6
2018-10-16T10:36:50.902Z,16.7
2018-10-16T10:38:50.203Z,16.8
2018-10-16T10:40:50.395Z,16.8
2018-10-16T10:42:50.497Z,17.0
2018-10-16T10:44:50.625Z,17.0
2018-10-16T10:46:50.069Z,17.2
2018-10-16T10:48:50.276Z,17.2
2018-10-16T10:50:52.401Z,17.2
2018-10-16T10:52:50.036Z,17.4
2018-10-16T10:54:50.286Z,17.5
2018-10-16T10:56:51.716Z,17.5
2018-10-16T10:58:49.973Z,17.6
2018-10-16T11:00:50.135Z,17.7
2018-10-16T11:02:50.366Z,17.8
2018-10-16T11:04:50.839Z,17.9
2018-10-16T11:06:50.381Z,18.0
2018-10-16T11:08:50.628Z,18.0
2018-10-16T11:10:50.837Z,18.1
2018-10-16T11:12:50.052Z,18.1
2018-10-16T11:14:50.188Z,18.2
2018-10-16T11:16:50.476Z,18.2
2018-10-16T11:18:50.593Z,18.3
2018-10-16T11:20:50.940Z,18.4
2018-10-16T11:22:50.185Z,18.5
2018-10-16T11:24:50.364Z,18.6
2018-10-16T11:26:50.948Z,18.6
2018-10-16T11:28:50.130Z,18.6
2018-10-16T11:30:50.295Z,18.7
2018-10-16T11:32:50.783Z,18.8
2018-10-16T11:34:50.327Z,18.8
2018-10-16T11:36:50.925Z,18.9
2018-10-16T11:38:50.208Z,18.9
2018-10-16T11:40:50.390Z,19.0
2018-10-16T11:42:50.667Z,19.0
2018-10-16T11:44:51.019Z,19.1
2018-10-16T11:46:50.405Z,19.1
2018-10-16T11:48:50.554Z,19.2
2018-10-16T11:50:50.699Z,19.3
2018-10-16T11:52:49.863Z,19.4
2018-10-16T11:54:50.190Z,19.4
2018-10-16T11:56:50.491Z,19.4
2018-10-16T11:58:50.663Z,19.5
2018-10-16T12:00:50.417Z,19.6
2018-10-16T12:02:50.028Z,19.7
2018-10-16T12:04:49.910Z,19.7
2018-10-16T12:06:50.253Z,19.8
2018-10-16T12:08:50.461Z,19.8
2018-10-16T12:10:51.470Z,19.9
2018-10-16T12:12:49.931Z,19.9
2018-10-16T12:14:50.105Z,20.0
2018-10-16T12:16:51.034Z,20.1
2018-10-16T12:18:50.754Z,20.2
2018-10-16T12:20:50.044Z,20.2
2018-10-16T12:22:50.205Z,20.2
2018-10-16T12:24:50.489Z,20.2
2018-10-16T12:26:49.939Z,20.3
2018-10-16T12:28:50.247Z,20.4
2018-10-16T12:30:50.546Z,20.4
2018-10-16T12:32:50.966Z,20.4
2018-10-16T12:34:50.396Z,20.5
2018-10-16T12:36:50.859Z,20.5
2018-10-16T12:38:50.159Z,20.6
2018-10-16T12:40:50.341Z,20.5
2018-10-16T12:42:51.275Z,20.5
2018-10-16T12:44:50.775Z,20.6
2018-10-16T12:46:50.189Z,20.6
2018-10-16T12:48:50.434Z,20.7
2018-10-16T12:50:50.848Z,20.8
2018-10-16T12:52:50.229Z,20.8
2018-10-16T12:54:50.416Z,20.8
2018-10-16T12:56:51.429Z,20.9
2018-10-16T12:58:49.989Z,21.0
2018-10-16T13:00:50.097Z,21.0
2018-10-16T13:02:50.337Z,21.0
2018-10-16T13:04:50.993Z,21.0
2018-10-16T13:06:50.543Z,21.0
2018-10-16T13:08:50.824Z,21.1
2018-10-16T13:10:50.223Z,21.1
2018-10-16T13:12:50.440Z,21.1
2018-10-16T13:14:50.660Z,21.2
2018-10-16T13:16:50.676Z,21.3
2018-10-16T13:18:50.090Z,21.4
2018-10-16T13:20:50.247Z,21.4
2018-10-16T13:22:50.437Z,21.5
2018-10-16T13:24:50.754Z,21.6
2018-10-16T13:26:50.169Z,21.6
2018-10-16T13:28:50.440Z,21.6
2018-10-16T13:30:50.613Z,21.6
2018-10-16T13:32:50.746Z,21.7
2018-10-16T13:34:50.373Z,21.7
2018-10-16T13:36:51.218Z,21.8
2018-10-16T13:38:50.602Z,21.8
2018-10-16T13:40:50.833Z,21.8
2018-10-16T13:42:50.833Z,21.8
2018-10-16T13:44:50.144Z,21.8
2018-10-16T13:46:50.492Z,21.8
2018-10-16T13:48:50.610Z,21.8
2018-10-16T13:50:50.818Z,21.8
2018-10-16T13:52:49.929Z,21.8
2018-10-16T13:54:50.118Z,21.9
2018-10-16T13:56:51.177Z,21.9
2018-10-16T13:58:50.426Z,21.9
2018-10-16T14:00:50.585Z,21.9
2018-10-16T14:02:50.989Z,22.0
2018-10-16T14:04:51.510Z,22.0
2018-10-16T14:06:50.072Z,22.1
2018-10-16T14:08:50.411Z,22.1
2018-10-16T14:10:50.625Z,22.1
2018-10-16T14:12:50.901Z,22.2
2018-10-16T14:14:50.068Z,22.2
2018-10-16T14:16:51.153Z,22.2
2018-10-16T14:18:50.606Z,22.2
2018-10-16T14:20:50.685Z,22.2
2018-10-16T14:22:51.015Z,22.2
2018-10-16T14:24:50.178Z,22.2
2018-10-16T14:26:50.586Z,22.2
2018-10-16T14:28:49.876Z,22.2
2018-10-16T14:30:50.172Z,22.2
2018-10-16T14:32:50.423Z,22.2
2018-10-16T14:34:50.315Z,22.2
2018-10-16T14:36:50.645Z,22.2
2018-10-16T14:38:50.912Z,22.3
2018-10-16T14:40:50.094Z,22.4
2018-10-16T14:42:50.264Z,22.4
2018-10-16T14:44:50.376Z,22.4
2018-10-16T14:46:50.657Z,22.4
2018-10-16T14:48:50.840Z,22.4
2018-10-16T14:50:50.005Z,22.5
2018-10-16T14:52:50.136Z,22.4
2018-10-16T14:54:50.305Z,22.4
2018-10-16T14:56:50.843Z,22.4
2018-10-16T14:58:50.232Z,22.4
2018-10-16T15:00:50.450Z,22.4
2018-10-16T15:02:50.599Z,22.3
2018-10-16T15:04:50.201Z,22.2
2018-10-16T15:06:50.609Z,22.2
2018-10-16T15:08:50.823Z,22.2
2018-10-16T15:10:49.993Z,22.1
2018-10-16T15:12:50.095Z,22.1
2018-10-16T15:14:50.292Z,22.0
2018-10-16T15:16:50.476Z,22.0
2018-10-16T15:18:50.726Z,21.97
2018-10-16T15:20:50.019Z,21.9
2018-10-16T15:22:50.168Z,21.89
2018-10-16T15:24:50.469Z,21.8
2018-10-16T15:26:50.772Z,21.8
2018-10-16T15:28:49.975Z,21.77
2018-10-16T15:30:50.112Z,21.67
2018-10-16T15:32:50.248Z,21.50
2018-10-16T15:34:50.210Z,21.41
2018-10-16T15:36:50.674Z,21.36
2018-10-16T15:38:50.805Z,21.37
2018-10-16T15:40:49.997Z,21.36
2018-10-16T15:42:50.146Z,21.34
2018-10-16T15:44:50.327Z,21.30
2018-10-16T15:46:50.618Z,21.29
2018-10-16T15:48:50.980Z,21.26
2018-10-16T15:50:50.909Z,21.26
2018-10-16T15:52:50.300Z,21.04
2018-10-16T15:54:50.480Z,20.95
2018-10-16T15:56:50.822Z,20.88
2018-10-16T15:58:50.004Z,20.76
2018-10-16T16:00:50.127Z,20.71
2018-10-16T16:02:50.329Z,20.61
2018-10-16T16:04:50.795Z,20.49
2018-10-16T16:06:50.289Z,20.36
2018-10-16T16:08:50.740Z,20.28
2018-10-16T16:10:49.986Z,20.06
2018-10-16T16:12:50.103Z,19.86
2018-10-16T16:14:50.267Z,19.81
2018-10-16T16:16:50.675Z,19.38
2018-10-16T16:18:49.893Z,19.18
2018-10-16T16:20:50.128Z,19.06
2018-10-16T16:22:50.367Z,19.06
2018-10-16T16:24:50.507Z,18.53
2018-10-16T16:26:49.868Z,18.43
2018-10-16T16:28:50.143Z,18.18
2018-10-16T16:30:50.381Z,18.03
2018-10-16T16:32:50.563Z,17.93
2018-10-16T16:34:50.520Z,17.82
2018-10-16T16:36:50.744Z,17.74
2018-10-16T16:38:50.182Z,17.65
2018-10-16T16:40:50.381Z,17.57
2018-10-16T16:42:50.789Z,17.46
2018-10-16T16:44:50.059Z,17.36
2018-10-16T16:46:50.448Z,17.31
2018-10-16T16:48:50.699Z,17.20
2018-10-16T16:50:50.834Z,17.10
2018-10-16T16:52:50.029Z,16.98
2018-10-16T16:54:50.302Z,16.86
2018-10-16T16:56:50.711Z,16.76
2018-10-16T16:58:49.903Z,16.60
2018-10-16T17:00:50.039Z,16.48
2018-10-16T17:02:50.217Z,16.35
2018-10-16T17:04:50.772Z,16.21
2018-10-16T17:06:50.089Z,16.11
2018-10-16T17:08:50.340Z,16.04
2018-10-16T17:10:50.575Z,15.91
2018-10-16T17:12:50.853Z,15.78
2018-10-16T17:14:50.045Z,15.69
2018-10-16T17:16:50.359Z,15.60
2018-10-16T17:18:50.532Z,15.50
2018-10-16T17:20:50.746Z,15.38
2018-10-16T17:22:49.899Z,15.27
2018-10-16T17:24:51.179Z,15.25
2018-10-16T17:26:51.724Z,15.16
2018-10-16T17:28:50.122Z,15.12
2018-10-16T17:30:50.266Z,15.03
2018-10-16T17:32:50.582Z,15.00
2018-10-16T17:34:50.048Z,14.92
2018-10-16T17:36:50.453Z,14.83
2018-10-16T17:38:50.625Z,14.81
2018-10-16T17:40:50.766Z,14.77
2018-10-16T17:42:49.932Z,14.76
2018-10-16T17:44:50.062Z,14.76
2018-10-16T17:46:50.406Z,14.74
2018-10-16T17:48:50.588Z,14.71
2018-10-16T17:50:49.986Z,14.70
2018-10-16T17:52:50.179Z,14.68
2018-10-16T17:54:50.424Z,14.65
2018-10-16T17:56:49.923Z,14.62
2018-10-16T17:58:50.033Z,14.60
2018-10-16T18:00:50.256Z,14.59
2018-10-16T18:02:50.627Z,14.57
2018-10-16T18:04:50.458Z,14.58
2018-10-16T18:06:49.937Z,14.58
2018-10-16T18:08:50.131Z,14.55
2018-10-16T18:10:50.322Z,14.54
2018-10-16T18:12:50.636Z,14.51
2018-10-16T18:14:49.984Z,14.47
2018-10-16T18:16:50.447Z,14.38
2018-10-16T18:18:50.587Z,14.35
2018-10-16T18:20:50.890Z,14.36
2018-10-16T18:22:50.097Z,14.54
2018-10-16T18:24:50.294Z,14.58
2018-10-16T18:26:50.794Z,14.57
2018-10-16T18:28:49.900Z,14.52
2018-10-16T18:30:49.977Z,14.44
2018-10-16T18:32:50.172Z,14.29
2018-10-16T18:34:50.679Z,14.08
2018-10-16T18:36:50.018Z,14.00
2018-10-16T18:38:50.149Z,13.82
2018-10-16T18:40:50.376Z,13.73
2018-10-16T18:42:50.506Z,13.63
2018-10-16T18:44:50.712Z,13.54
2018-10-16T18:46:50.374Z,13.48
2018-10-16T18:48:51.457Z,13.42
2018-10-16T18:50:50.017Z,13.36
2018-10-16T18:52:50.351Z,13.36
2018-10-16T18:54:50.590Z,13.31
2018-10-16T18:56:49.955Z,13.27
2018-10-16T18:58:50.108Z,13.26
2018-10-16T19:00:50.279Z,13.29
2018-10-16T19:02:50.433Z,13.34
2018-10-16T19:04:49.993Z,13.34
2018-10-16T19:06:50.399Z,13.43
2018-10-16T19:08:50.703Z,13.44
2018-10-16T19:10:49.898Z,13.44
2018-10-16T19:12:49.924Z,13.42
2018-10-16T19:14:49.976Z,13.42
2018-10-16T19:16:50.328Z,13.47
2018-10-16T19:18:50.448Z,13.48
2018-10-16T19:20:50.654Z,13.49
2018-10-16T19:22:49.924Z,13.45
2018-10-16T19:24:50.073Z,13.39
2018-10-16T19:26:50.418Z,13.35
2018-10-16T19:28:50.559Z,13.33
2018-10-16T19:30:50.742Z,13.31
2018-10-16T19:32:50.032Z,13.28
2018-10-16T19:34:50.558Z,13.22
2018-10-16T19:36:49.939Z,13.11
2018-10-16T19:38:50.185Z,13.07
2018-10-16T19:40:50.348Z,13.02
2018-10-16T19:42:50.455Z,12.96
2018-10-16T19:44:50.704Z,12.88
2018-10-16T19:46:50.272Z,12.82
2018-10-16T19:48:50.406Z,12.79
2018-10-16T19:50:50.735Z,12.72
2018-10-16T19:52:49.904Z,12.63
2018-10-16T19:54:50.138Z,12.54
2018-10-16T19:56:50.396Z,12.46
2018-10-16T19:58:50.578Z,12.42
2018-10-16T20:00:49.908Z,12.34
2018-10-16T20:02:50.052Z,12.28
2018-10-16T20:04:50.587Z,12.26
2018-10-16T20:06:50.836Z,12.17
2018-10-16T20:08:50.559Z,12.15
2018-10-16T20:10:50.870Z,12.06
2018-10-16T20:12:50.088Z,11.98
2018-10-16T20:14:50.263Z,11.95
2018-10-16T20:16:50.772Z,11.93
2018-10-16T20:18:49.985Z,11.87
2018-10-16T20:20:50.132Z,11.83
2018-10-16T20:22:50.267Z,11.73
2018-10-16T20:24:51.425Z,11.67
2018-10-16T20:26:50.072Z,11.65
2018-10-16T20:28:50.189Z,11.56
2018-10-16T20:30:50.285Z,11.49
2018-10-16T20:32:50.524Z,11.46
2018-10-16T20:34:50.363Z,11.40
2018-10-16T20:36:50.772Z,11.36
2018-10-16T20:38:50.125Z,11.29
2018-10-16T20:40:50.332Z,11.26
2018-10-16T20:42:50.531Z,11.22
2018-10-16T20:44:50.714Z,11.14
2018-10-16T20:46:50.445Z,11.07
2018-10-16T20:48:50.663Z,10.98
2018-10-16T20:50:49.934Z,10.94
2018-10-16T20:52:50.145Z,10.84
2018-10-16T20:54:50.310Z,10.82
2018-10-16T20:56:50.725Z,10.81
2018-10-16T20:58:49.970Z,10.80
2018-10-16T21:00:50.174Z,10.71
2018-10-16T21:02:50.385Z,10.67
2018-10-16T21:04:51.000Z,10.61
2018-10-16T21:06:51.999Z,10.57
2018-10-16T21:08:50.414Z,10.54
2018-10-16T21:10:50.600Z,10.49
2018-10-16T21:12:50.747Z,10.46
2018-10-16T21:14:49.923Z,10.44
2018-10-16T21:16:50.218Z,10.38
2018-10-16T21:18:50.263Z,10.33
2018-10-16T21:20:50.372Z,10.30
2018-10-16T21:22:50.573Z,10.23
2018-10-16T21:24:50.770Z,10.19
2018-10-16T21:26:50.161Z,10.18
2018-10-16T21:28:50.375Z,10.12
2018-10-16T21:30:50.688Z,10.12
2018-10-16T21:32:49.992Z,10.12
2018-10-16T21:34:50.545Z,10.12
2018-10-16T21:36:49.999Z,10.18
2018-10-16T21:38:50.113Z,10.18
2018-10-16T21:40:50.335Z,10.15
2018-10-16T21:42:50.472Z,10.17
2018-10-16T21:44:50.632Z,10.21
2018-10-16T21:46:49.983Z,10.25
2018-10-16T21:48:50.169Z,10.23
2018-10-16T21:50:50.310Z,10.18
2018-10-16T21:52:50.519Z,10.10
2018-10-16T21:54:50.938Z,10.02
2018-10-16T21:56:50.395Z,9.97
2018-10-16T21:58:50.758Z,9.88
2018-10-16T22:00:50.011Z,9.85
2018-10-16T22:02:50.157Z,9.81
2018-10-16T22:04:50.155Z,9.70
2018-10-16T22:06:50.428Z,9.66
2018-10-16T22:08:50.607Z,9.63
2018-10-16T22:10:50.763Z,9.61
2018-10-16T22:12:49.993Z,9.57
2018-10-16T22:14:50.268Z,9.55
2018-10-16T22:16:50.880Z,9.51
2018-10-16T22:18:50.037Z,9.48
2018-10-16T22:20:50.211Z,9.44
2018-10-16T22:22:50.505Z,9.43
2018-10-16T22:24:50.678Z,9.45
2018-10-16T22:26:50.223Z,9.49
2018-10-16T22:28:50.410Z,9.47
2018-10-16T22:30:50.612Z,9.40
2018-10-16T22:32:49.931Z,9.37
2018-10-16T22:34:50.336Z,9.32
2018-10-16T22:36:50.990Z,9.22
2018-10-16T22:38:50.208Z,9.18
2018-10-16T22:40:50.353Z,9.14
2018-10-16T22:42:50.929Z,9.13
2018-10-16T22:44:50.629Z,9.08
2018-10-16T22:46:50.136Z,9.03
2018-10-16T22:48:50.438Z,8.93
2018-10-16T22:50:50.663Z,8.90
2018-10-16T22:52:50.918Z,8.88
2018-10-16T22:54:50.095Z,8.88
2018-10-16T22:56:50.456Z,8.86
2018-10-16T22:58:50.777Z,8.86
2018-10-16T23:00:49.907Z,8.86
2018-10-16T23:02:50.088Z,8.88
2018-10-16T23:04:50.548Z,8.89
2018-10-16T23:06:50.031Z,8.85
2018-10-16T23:08:50.180Z,8.84
2018-10-16T23:10:50.317Z,8.82
2018-10-16T23:12:50.364Z,8.77
2018-10-16T23:14:50.592Z,8.73
2018-10-16T23:16:49.871Z,8.75
2018-10-16T23:18:50.095Z,8.75
2018-10-16T23:20:50.269Z,8.72
2018-10-16T23:22:50.493Z,8.69
2018-10-16T23:24:49.998Z,8.65
2018-10-16T23:26:50.425Z,8.62
2018-10-16T23:28:50.568Z,8.58
2018-10-16T23:30:50.985Z,8.54
2018-10-16T23:32:50.204Z,8.54
2018-10-16T23:34:50.689Z,8.55
2018-10-16T23:36:50.012Z,8.56
2018-10-16T23:38:50.148Z,8.58
2018-10-16T23:40:50.260Z,8.58
2018-10-16T23:42:50.484Z,8.59
2018-10-16T23:44:50.663Z,8.56
2018-10-16T23:46:50.165Z,8.56
2018-10-16T23:48:50.435Z,8.56
2018-10-16T23:50:50.593Z,8.56
2018-10-16T23:52:50.807Z,8.59
2018-10-16T23:54:50.091Z,8.57
2018-10-16T23:56:50.603Z,8.49
2018-10-16T23:58:50.816Z,8.45
